Airfield :
LOGIN :

Register | Disclaimer

   EN    FR    IT 

 










Legend :    VFR   Marginal VFR   IFR   Intensive IFR   Very Intensive IFR
Visi :
Ceiling :
>= 8 km
>= 3000ft
5 to 8 km
1000 to 3000 ft
1500m to 5 km
500 to 1000 ft
800 to 1500m
200 to 500 ft
< 800m
< 200 ft
Symbols :   Thunderstorms  Fog  Heavy snow  Heavy precipitations  Wind > 20 kt
SIGMETs :     Misc.  Thunderstorms  Icing  Turbulence  Mountain Waves  Volcanic Ashes






- Airport Elevation : 1197 ft
- IATA code : SPM


ETAD - Spangdahlem Ab

CURRENT METAR :
  • 100356Z AUTO 23005KT 9999 FEW020 01/M01 A3025 RMK AO2 SLP250 T00061007 $

EXPIRED METARs :
  • 100341Z AUTO 24005KT 9999 FEW020 SCT055 01/M01 A3024 RMK AO2 SLP246 $
  • 100311Z AUTO 24004KT 9999 FEW016 SCT022 OVC048 01/00 A3023 RMK AO2 SLP243 $
  • 100256Z AUTO 25004KT 9999 SCT016 BKN050 01/00 A3022 RMK AO2 SLP239 60000 T00061003 52027 $
  • 100214Z AUTO 25006KT 9999 FEW014 01/00 A3020 RMK AO2 SLP233 $
  • 100156Z AUTO 25005KT 9999 CLR 01/00 A3019 RMK AO2 RAE10DZB10E11 SLP229 P0000 T00111001 $
  • 100142Z AUTO 23006KT 9999 FEW055 01/00 A3019 RMK AO2 RAE10DZB10E11 SLP229 $

TAF TAF ETAD
Valid from the 09 at 21:00 until the 11 at 03:00 UTC


092055Z 0921/1103 30009KT 9999 BKN025 610254 510203 QNH3000INS
BECMG 0923/0924 30009KT 9999 BKN025 610254 QNH3010INS WND VRB06KT AFT 1003
BECMG 1005/1006 VRB06KT 6000 BR SCT007 OVC015 610155 QNH3027INS
TEMPO 1006/1009 2400 BR OVC005
BECMG 1008/1009 22006KT 9999 NSW BKN007 BKN015 QNH3028INS
BECMG 1011/1012 21012KT 9999 BKN020 610204 QNH2992INS TX03/0921Z TNM01/1005Z LAST NO AMDS AFT 0921 NEXT 1005



MET'MAP, your aeronautical weather chart ! - Copyright ORBIFLY December 2007 - Disclaimer

ORBIFLY MET'MAP TEAM :

Programming & Development : Alexandra Zaïnal
Concept & original design : Baudouin d'Aumeries
Assistance for programming : Marc-Olivier Méhu
Technical & hardware support : Manuel Goepfert

Contact : metmap@orbifly.com




SOURCES & CREDITS :

   NOAA